sensor_id;sensor_type;location;lat;lon;timestamp;P1;durP1;ratioP1;P2;durP2;ratioP2
81367;SDS011;70823;50.056;14.398;2024-02-26T00:00:03;19.77;;;9.40;;
81367;SDS011;70823;50.056;14.398;2024-02-26T00:02:30;19.13;;;9.13;;
81367;SDS011;70823;50.056;14.398;2024-02-26T00:04:56;17.77;;;8.82;;
81367;SDS011;70823;50.056;14.398;2024-02-26T00:07:21;16.93;;;8.70;;
81367;SDS011;70823;50.056;14.398;2024-02-26T00:09:47;17.48;;;8.70;;
81367;SDS011;70823;50.056;14.398;2024-02-26T00:12:12;14.47;;;7.97;;
81367;SDS011;70823;50.056;14.398;2024-02-26T00:14:37;15.57;;;8.60;;
81367;SDS011;70823;50.056;14.398;2024-02-26T00:17:03;17.23;;;8.30;;
81367;SDS011;70823;50.056;14.398;2024-02-26T00:19:28;15.98;;;8.02;;
81367;SDS011;70823;50.056;14.398;2024-02-26T00:21:53;16.73;;;8.10;;
81367;SDS011;70823;50.056;14.398;2024-02-26T00:24:20;15.35;;;8.57;;
81367;SDS011;70823;50.056;14.398;2024-02-26T00:26:45;17.30;;;8.17;;
81367;SDS011;70823;50.056;14.398;2024-02-26T00:29:11;17.47;;;8.07;;
81367;SDS011;70823;50.056;14.398;2024-02-26T00:31:36;15.00;;;8.80;;
81367;SDS011;70823;50.056;14.398;2024-02-26T00:34:03;16.15;;;8.27;;
81367;SDS011;70823;50.056;14.398;2024-02-26T00:36:28;16.85;;;8.48;;
81367;SDS011;70823;50.056;14.398;2024-02-26T00:38:53;14.80;;;8.57;;
81367;SDS011;70823;50.056;14.398;2024-02-26T00:41:19;15.67;;;8.43;;
81367;SDS011;70823;50.056;14.398;2024-02-26T00:43:45;15.98;;;9.45;;
81367;SDS011;70823;50.056;14.398;2024-02-26T00:46:10;15.65;;;8.13;;
81367;SDS011;70823;50.056;14.398;2024-02-26T00:48:35;13.37;;;7.77;;
81367;SDS011;70823;50.056;14.398;2024-02-26T00:51:02;13.70;;;7.57;;
81367;SDS011;70823;50.056;14.398;2024-02-26T00:53:30;15.85;;;7.88;;
81367;SDS011;70823;50.056;14.398;2024-02-26T00:55:55;14.90;;;7.83;;
81367;SDS011;70823;50.056;14.398;2024-02-26T00:58:21;13.98;;;8.18;;
81367;SDS011;70823;50.056;14.398;2024-02-26T01:00:46;16.60;;;7.97;;
81367;SDS011;70823;50.056;14.398;2024-02-26T01:03:11;15.48;;;8.77;;
81367;SDS011;70823;50.056;14.398;2024-02-26T01:05:37;15.27;;;8.93;;
81367;SDS011;70823;50.056;14.398;2024-02-26T01:08:03;13.60;;;7.43;;
81367;SDS011;70823;50.056;14.398;2024-02-26T01:10:29;13.13;;;7.45;;
81367;SDS011;70823;50.056;14.398;2024-02-26T01:12:54;14.07;;;7.40;;
81367;SDS011;70823;50.056;14.398;2024-02-26T01:15:19;15.18;;;7.75;;
81367;SDS011;70823;50.056;14.398;2024-02-26T01:17:48;12.93;;;7.70;;
81367;SDS011;70823;50.056;14.398;2024-02-26T01:20:13;15.30;;;8.02;;
81367;SDS011;70823;50.056;14.398;2024-02-26T01:22:39;14.95;;;7.90;;
81367;SDS011;70823;50.056;14.398;2024-02-26T01:25:05;13.48;;;7.97;;
81367;SDS011;70823;50.056;14.398;2024-02-26T01:27:32;12.55;;;7.85;;
81367;SDS011;70823;50.056;14.398;2024-02-26T01:29:57;14.40;;;7.97;;
81367;SDS011;70823;50.056;14.398;2024-02-26T01:32:23;15.37;;;8.07;;
81367;SDS011;70823;50.056;14.398;2024-02-26T01:34:48;14.67;;;8.57;;
81367;SDS011;70823;50.056;14.398;2024-02-26T01:37:13;12.87;;;7.07;;
81367;SDS011;70823;50.056;14.398;2024-02-26T01:39:38;11.00;;;6.77;;
81367;SDS011;70823;50.056;14.398;2024-02-26T01:42:06;11.38;;;7.22;;
81367;SDS011;70823;50.056;14.398;2024-02-26T01:44:31;13.10;;;8.07;;
81367;SDS011;70823;50.056;14.398;2024-02-26T01:46:57;14.20;;;6.65;;
81367;SDS011;70823;50.056;14.398;2024-02-26T01:49:22;11.87;;;7.07;;
81367;SDS011;70823;50.056;14.398;2024-02-26T01:51:47;11.77;;;6.40;;
81367;SDS011;70823;50.056;14.398;2024-02-26T01:54:13;12.37;;;6.90;;
81367;SDS011;70823;50.056;14.398;2024-02-26T01:56:38;11.85;;;7.03;;
81367;SDS011;70823;50.056;14.398;2024-02-26T01:59:05;12.55;;;7.32;;
81367;SDS011;70823;50.056;14.398;2024-02-26T02:01:31;11.80;;;7.18;;
81367;SDS011;70823;50.056;14.398;2024-02-26T02:03:58;10.77;;;6.60;;
81367;SDS011;70823;50.056;14.398;2024-02-26T02:06:24;10.90;;;7.32;;
81367;SDS011;70823;50.056;14.398;2024-02-26T02:08:49;12.95;;;7.20;;
81367;SDS011;70823;50.056;14.398;2024-02-26T02:11:15;10.93;;;6.75;;
81367;SDS011;70823;50.056;14.398;2024-02-26T02:13:41;14.40;;;6.90;;
81367;SDS011;70823;50.056;14.398;2024-02-26T02:16:06;11.07;;;6.67;;
81367;SDS011;70823;50.056;14.398;2024-02-26T02:18:32;12.02;;;7.40;;
81367;SDS011;70823;50.056;14.398;2024-02-26T02:20:59;11.77;;;6.97;;
81367;SDS011;70823;50.056;14.398;2024-02-26T02:23:25;11.13;;;6.85;;
81367;SDS011;70823;50.056;14.398;2024-02-26T02:25:50;9.77;;;6.37;;
81367;SDS011;70823;50.056;14.398;2024-02-26T02:28:16;11.98;;;7.00;;
81367;SDS011;70823;50.056;14.398;2024-02-26T02:30:41;11.73;;;6.97;;
81367;SDS011;70823;50.056;14.398;2024-02-26T02:33:07;11.37;;;6.70;;
81367;SDS011;70823;50.056;14.398;2024-02-26T02:35:32;13.02;;;7.50;;
81367;SDS011;70823;50.056;14.398;2024-02-26T02:37:57;10.50;;;6.20;;
81367;SDS011;70823;50.056;14.398;2024-02-26T02:40:23;11.23;;;6.65;;
81367;SDS011;70823;50.056;14.398;2024-02-26T02:42:48;11.67;;;6.40;;
81367;SDS011;70823;50.056;14.398;2024-02-26T02:45:14;12.07;;;7.30;;
81367;SDS011;70823;50.056;14.398;2024-02-26T02:47:39;10.35;;;7.03;;
81367;SDS011;70823;50.056;14.398;2024-02-26T02:50:04;12.00;;;6.37;;
81367;SDS011;70823;50.056;14.398;2024-02-26T02:52:30;12.95;;;7.60;;
81367;SDS011;70823;50.056;14.398;2024-02-26T02:54:56;10.55;;;6.90;;
81367;SDS011;70823;50.056;14.398;2024-02-26T02:57:21;11.97;;;6.93;;
81367;SDS011;70823;50.056;14.398;2024-02-26T02:59:46;9.88;;;6.70;;
81367;SDS011;70823;50.056;14.398;2024-02-26T03:02:12;9.80;;;6.25;;
81367;SDS011;70823;50.056;14.398;2024-02-26T03:04:37;9.50;;;5.60;;
81367;SDS011;70823;50.056;14.398;2024-02-26T03:07:02;9.57;;;6.23;;
81367;SDS011;70823;50.056;14.398;2024-02-26T03:09:28;10.63;;;6.18;;
81367;SDS011;70823;50.056;14.398;2024-02-26T03:11:53;9.83;;;6.40;;
81367;SDS011;70823;50.056;14.398;2024-02-26T03:14:18;11.10;;;6.70;;
81367;SDS011;70823;50.056;14.398;2024-02-26T03:16:44;11.20;;;6.73;;
81367;SDS011;70823;50.056;14.398;2024-02-26T03:19:09;11.03;;;6.73;;
81367;SDS011;70823;50.056;14.398;2024-02-26T03:21:34;11.10;;;6.73;;
81367;SDS011;70823;50.056;14.398;2024-02-26T03:24:00;9.37;;;6.40;;
81367;SDS011;70823;50.056;14.398;2024-02-26T03:26:25;10.23;;;7.03;;
81367;SDS011;70823;50.056;14.398;2024-02-26T03:28:50;9.47;;;6.53;;
81367;SDS011;70823;50.056;14.398;2024-02-26T03:31:16;10.17;;;5.97;;
81367;SDS011;70823;50.056;14.398;2024-02-26T03:33:41;10.23;;;6.47;;
81367;SDS011;70823;50.056;14.398;2024-02-26T03:36:06;9.40;;;6.13;;
81367;SDS011;70823;50.056;14.398;2024-02-26T03:38:32;9.00;;;6.03;;
81367;SDS011;70823;50.056;14.398;2024-02-26T03:40:57;8.75;;;5.97;;
81367;SDS011;70823;50.056;14.398;2024-02-26T03:43:23;9.02;;;6.35;;
81367;SDS011;70823;50.056;14.398;2024-02-26T03:45:48;11.52;;;6.65;;
81367;SDS011;70823;50.056;14.398;2024-02-26T03:48:13;10.03;;;6.60;;
81367;SDS011;70823;50.056;14.398;2024-02-26T03:50:39;9.53;;;6.37;;
81367;SDS011;70823;50.056;14.398;2024-02-26T03:53:04;9.40;;;6.28;;
81367;SDS011;70823;50.056;14.398;2024-02-26T03:55:30;10.32;;;7.38;;
81367;SDS011;70823;50.056;14.398;2024-02-26T03:57:55;9.07;;;6.13;;
81367;SDS011;70823;50.056;14.398;2024-02-26T04:00:20;11.57;;;6.72;;
81367;SDS011;70823;50.056;14.398;2024-02-26T04:02:49;10.73;;;6.50;;
81367;SDS011;70823;50.056;14.398;2024-02-26T04:05:14;9.45;;;6.10;;
81367;SDS011;70823;50.056;14.398;2024-02-26T04:07:40;9.87;;;6.30;;
81367;SDS011;70823;50.056;14.398;2024-02-26T04:10:09;10.68;;;7.40;;
81367;SDS011;70823;50.056;14.398;2024-02-26T04:12:35;9.57;;;6.57;;
81367;SDS011;70823;50.056;14.398;2024-02-26T04:15:00;9.13;;;6.27;;
81367;SDS011;70823;50.056;14.398;2024-02-26T04:17:25;10.13;;;5.93;;
81367;SDS011;70823;50.056;14.398;2024-02-26T04:19:50;8.30;;;6.10;;
81367;SDS011;70823;50.056;14.398;2024-02-26T04:22:16;10.10;;;6.27;;
81367;SDS011;70823;50.056;14.398;2024-02-26T04:24:41;11.33;;;6.87;;
81367;SDS011;70823;50.056;14.398;2024-02-26T04:27:06;9.73;;;5.80;;
81367;SDS011;70823;50.056;14.398;2024-02-26T04:29:32;8.77;;;5.90;;
81367;SDS011;70823;50.056;14.398;2024-02-26T04:31:57;10.87;;;6.00;;
81367;SDS011;70823;50.056;14.398;2024-02-26T04:34:22;9.67;;;6.40;;
81367;SDS011;70823;50.056;14.398;2024-02-26T04:36:48;9.67;;;6.10;;
81367;SDS011;70823;50.056;14.398;2024-02-26T04:39:13;9.37;;;5.97;;
81367;SDS011;70823;50.056;14.398;2024-02-26T04:41:38;9.82;;;6.60;;
81367;SDS011;70823;50.056;14.398;2024-02-26T04:44:04;9.45;;;5.82;;
81367;SDS011;70823;50.056;14.398;2024-02-26T04:46:29;8.73;;;5.73;;
81367;SDS011;70823;50.056;14.398;2024-02-26T04:48:54;9.63;;;6.30;;
81367;SDS011;70823;50.056;14.398;2024-02-26T04:51:19;9.07;;;6.30;;
81367;SDS011;70823;50.056;14.398;2024-02-26T04:53:45;8.32;;;6.07;;
81367;SDS011;70823;50.056;14.398;2024-02-26T04:56:10;9.30;;;5.87;;
81367;SDS011;70823;50.056;14.398;2024-02-26T04:58:35;9.07;;;5.60;;
81367;SDS011;70823;50.056;14.398;2024-02-26T05:01:01;9.20;;;5.93;;
81367;SDS011;70823;50.056;14.398;2024-02-26T05:03:26;9.73;;;6.20;;
81367;SDS011;70823;50.056;14.398;2024-02-26T05:05:51;8.70;;;5.88;;
81367;SDS011;70823;50.056;14.398;2024-02-26T05:08:17;9.07;;;6.40;;
81367;SDS011;70823;50.056;14.398;2024-02-26T05:10:42;8.83;;;6.00;;
81367;SDS011;70823;50.056;14.398;2024-02-26T05:13:10;8.15;;;5.45;;
81367;SDS011;70823;50.056;14.398;2024-02-26T05:15:35;10.40;;;7.70;;
81367;SDS011;70823;50.056;14.398;2024-02-26T05:18:01;8.00;;;6.30;;
81367;SDS011;70823;50.056;14.398;2024-02-26T05:20:27;9.13;;;6.40;;
81367;SDS011;70823;50.056;14.398;2024-02-26T05:22:53;8.67;;;6.87;;
81367;SDS011;70823;50.056;14.398;2024-02-26T05:25:18;9.02;;;6.70;;
81367;SDS011;70823;50.056;14.398;2024-02-26T05:27:44;8.52;;;5.65;;
81367;SDS011;70823;50.056;14.398;2024-02-26T05:30:09;9.00;;;5.72;;
81367;SDS011;70823;50.056;14.398;2024-02-26T05:32:35;7.38;;;5.97;;
81367;SDS011;70823;50.056;14.398;2024-02-26T05:35:01;8.70;;;6.30;;
81367;SDS011;70823;50.056;14.398;2024-02-26T05:37:28;8.50;;;6.50;;
81367;SDS011;70823;50.056;14.398;2024-02-26T05:39:54;7.50;;;5.78;;
81367;SDS011;70823;50.056;14.398;2024-02-26T05:42:19;8.70;;;6.00;;
81367;SDS011;70823;50.056;14.398;2024-02-26T05:44:44;9.23;;;6.83;;
81367;SDS011;70823;50.056;14.398;2024-02-26T05:47:10;10.10;;;5.97;;
81367;SDS011;70823;50.056;14.398;2024-02-26T05:49:35;7.33;;;5.30;;
81367;SDS011;70823;50.056;14.398;2024-02-26T05:52:00;8.97;;;6.03;;
81367;SDS011;70823;50.056;14.398;2024-02-26T05:54:26;8.98;;;5.95;;
81367;SDS011;70823;50.056;14.398;2024-02-26T05:56:51;9.27;;;6.33;;
81367;SDS011;70823;50.056;14.398;2024-02-26T05:59:16;9.65;;;6.55;;
81367;SDS011;70823;50.056;14.398;2024-02-26T06:01:42;7.57;;;5.15;;
81367;SDS011;70823;50.056;14.398;2024-02-26T06:04:07;8.10;;;5.30;;
81367;SDS011;70823;50.056;14.398;2024-02-26T06:06:33;9.40;;;6.63;;
81367;SDS011;70823;50.056;14.398;2024-02-26T06:08:58;8.97;;;5.90;;
81367;SDS011;70823;50.056;14.398;2024-02-26T06:11:23;8.63;;;5.82;;
81367;SDS011;70823;50.056;14.398;2024-02-26T06:13:49;9.37;;;6.00;;
81367;SDS011;70823;50.056;14.398;2024-02-26T06:16:14;7.87;;;5.73;;
81367;SDS011;70823;50.056;14.398;2024-02-26T06:18:39;7.37;;;5.77;;
81367;SDS011;70823;50.056;14.398;2024-02-26T06:21:04;7.73;;;5.50;;
81367;SDS011;70823;50.056;14.398;2024-02-26T06:23:34;8.30;;;5.38;;
81367;SDS011;70823;50.056;14.398;2024-02-26T06:25:59;9.07;;;6.53;;
81367;SDS011;70823;50.056;14.398;2024-02-26T06:28:24;8.10;;;6.17;;
81367;SDS011;70823;50.056;14.398;2024-02-26T06:30:50;10.30;;;6.18;;
81367;SDS011;70823;50.056;14.398;2024-02-26T06:33:17;8.88;;;6.18;;
81367;SDS011;70823;50.056;14.398;2024-02-26T06:35:42;8.17;;;6.10;;
81367;SDS011;70823;50.056;14.398;2024-02-26T06:38:09;7.72;;;5.85;;
81367;SDS011;70823;50.056;14.398;2024-02-26T06:40:35;14.40;;;7.60;;
81367;SDS011;70823;50.056;14.398;2024-02-26T06:43:00;13.90;;;8.70;;
81367;SDS011;70823;50.056;14.398;2024-02-26T06:45:25;11.13;;;7.77;;
81367;SDS011;70823;50.056;14.398;2024-02-26T06:47:51;13.30;;;8.10;;
81367;SDS011;70823;50.056;14.398;2024-02-26T06:50:16;12.03;;;8.07;;
81367;SDS011;70823;50.056;14.398;2024-02-26T06:52:42;11.48;;;7.95;;
81367;SDS011;70823;50.056;14.398;2024-02-26T06:55:09;11.45;;;7.82;;
81367;SDS011;70823;50.056;14.398;2024-02-26T06:57:34;15.30;;;8.80;;
81367;SDS011;70823;50.056;14.398;2024-02-26T06:59:59;11.93;;;8.37;;
81367;SDS011;70823;50.056;14.398;2024-02-26T07:02:25;10.47;;;7.47;;
81367;SDS011;70823;50.056;14.398;2024-02-26T07:04:50;10.13;;;7.67;;
81367;SDS011;70823;50.056;14.398;2024-02-26T07:07:15;12.40;;;8.37;;
81367;SDS011;70823;50.056;14.398;2024-02-26T07:09:43;10.18;;;7.57;;
81367;SDS011;70823;50.056;14.398;2024-02-26T07:12:08;10.35;;;7.97;;
81367;SDS011;70823;50.056;14.398;2024-02-26T07:14:33;10.17;;;6.83;;
81367;SDS011;70823;50.056;14.398;2024-02-26T07:16:59;11.85;;;7.50;;
81367;SDS011;70823;50.056;14.398;2024-02-26T07:19:24;11.63;;;8.30;;
81367;SDS011;70823;50.056;14.398;2024-02-26T07:21:49;10.70;;;7.17;;
81367;SDS011;70823;50.056;14.398;2024-02-26T07:24:15;11.23;;;7.63;;
81367;SDS011;70823;50.056;14.398;2024-02-26T07:26:40;9.60;;;7.10;;
81367;SDS011;70823;50.056;14.398;2024-02-26T07:29:05;10.68;;;7.50;;
81367;SDS011;70823;50.056;14.398;2024-02-26T07:31:31;9.20;;;6.80;;
81367;SDS011;70823;50.056;14.398;2024-02-26T07:33:56;10.93;;;7.57;;
81367;SDS011;70823;50.056;14.398;2024-02-26T07:36:21;9.57;;;7.20;;
81367;SDS011;70823;50.056;14.398;2024-02-26T07:38:47;9.97;;;7.23;;
81367;SDS011;70823;50.056;14.398;2024-02-26T07:41:12;10.07;;;6.87;;
81367;SDS011;70823;50.056;14.398;2024-02-26T07:43:37;9.57;;;6.83;;
81367;SDS011;70823;50.056;14.398;2024-02-26T07:46:02;8.50;;;6.50;;
81367;SDS011;70823;50.056;14.398;2024-02-26T07:48:28;8.82;;;6.25;;
81367;SDS011;70823;50.056;14.398;2024-02-26T07:50:53;17.40;;;7.30;;
81367;SDS011;70823;50.056;14.398;2024-02-26T07:53:18;8.73;;;6.50;;
81367;SDS011;70823;50.056;14.398;2024-02-26T07:55:44;8.73;;;6.30;;
81367;SDS011;70823;50.056;14.398;2024-02-26T07:58:09;8.87;;;6.83;;
81367;SDS011;70823;50.056;14.398;2024-02-26T08:00:34;9.13;;;6.10;;
81367;SDS011;70823;50.056;14.398;2024-02-26T08:03:00;8.03;;;5.83;;
81367;SDS011;70823;50.056;14.398;2024-02-26T08:05:25;8.40;;;6.85;;
81367;SDS011;70823;50.056;14.398;2024-02-26T08:07:50;9.37;;;6.67;;
81367;SDS011;70823;50.056;14.398;2024-02-26T08:10:16;8.88;;;6.20;;
81367;SDS011;70823;50.056;14.398;2024-02-26T08:12:41;8.55;;;6.00;;
81367;SDS011;70823;50.056;14.398;2024-02-26T08:15:07;10.10;;;6.22;;
81367;SDS011;70823;50.056;14.398;2024-02-26T08:17:33;10.43;;;7.05;;
81367;SDS011;70823;50.056;14.398;2024-02-26T08:19:59;8.97;;;6.07;;
81367;SDS011;70823;50.056;14.398;2024-02-26T08:22:24;8.65;;;5.97;;
81367;SDS011;70823;50.056;14.398;2024-02-26T08:24:50;9.55;;;6.60;;
81367;SDS011;70823;50.056;14.398;2024-02-26T08:27:15;9.27;;;6.25;;
81367;SDS011;70823;50.056;14.398;2024-02-26T08:29:40;7.47;;;6.03;;
81367;SDS011;70823;50.056;14.398;2024-02-26T08:32:06;8.87;;;6.27;;
81367;SDS011;70823;50.056;14.398;2024-02-26T08:34:32;8.63;;;6.40;;
81367;SDS011;70823;50.056;14.398;2024-02-26T08:36:57;8.90;;;5.93;;
81367;SDS011;70823;50.056;14.398;2024-02-26T08:39:22;8.43;;;6.10;;
81367;SDS011;70823;50.056;14.398;2024-02-26T08:41:48;9.30;;;6.07;;
81367;SDS011;70823;50.056;14.398;2024-02-26T08:44:13;8.23;;;6.20;;
81367;SDS011;70823;50.056;14.398;2024-02-26T08:46:38;8.47;;;5.83;;
81367;SDS011;70823;50.056;14.398;2024-02-26T08:49:04;8.20;;;6.50;;
81367;SDS011;70823;50.056;14.398;2024-02-26T08:51:29;8.00;;;5.40;;
81367;SDS011;70823;50.056;14.398;2024-02-26T08:53:54;8.50;;;6.33;;
81367;SDS011;70823;50.056;14.398;2024-02-26T08:56:20;9.50;;;6.40;;
81367;SDS011;70823;50.056;14.398;2024-02-26T08:58:46;9.32;;;6.95;;
81367;SDS011;70823;50.056;14.398;2024-02-26T09:01:14;9.63;;;5.32;;
81367;SDS011;70823;50.056;14.398;2024-02-26T09:03:39;7.63;;;5.45;;
81367;SDS011;70823;50.056;14.398;2024-02-26T09:06:05;8.20;;;6.22;;
81367;SDS011;70823;50.056;14.398;2024-02-26T09:08:31;8.93;;;6.03;;
81367;SDS011;70823;50.056;14.398;2024-02-26T09:10:57;9.35;;;6.10;;
81367;SDS011;70823;50.056;14.398;2024-02-26T09:13:22;7.97;;;6.00;;
81367;SDS011;70823;50.056;14.398;2024-02-26T09:15:48;8.55;;;5.82;;
81367;SDS011;70823;50.056;14.398;2024-02-26T09:18:13;8.00;;;5.73;;
81367;SDS011;70823;50.056;14.398;2024-02-26T09:20:39;9.13;;;6.07;;
81367;SDS011;70823;50.056;14.398;2024-02-26T09:23:05;7.83;;;5.73;;
81367;SDS011;70823;50.056;14.398;2024-02-26T09:25:30;8.77;;;6.43;;
81367;SDS011;70823;50.056;14.398;2024-02-26T09:27:55;7.65;;;5.63;;
81367;SDS011;70823;50.056;14.398;2024-02-26T09:30:21;8.17;;;5.53;;
81367;SDS011;70823;50.056;14.398;2024-02-26T09:32:46;12.23;;;6.53;;
81367;SDS011;70823;50.056;14.398;2024-02-26T09:35:13;7.65;;;6.10;;
81367;SDS011;70823;50.056;14.398;2024-02-26T09:37:38;10.32;;;6.03;;
81367;SDS011;70823;50.056;14.398;2024-02-26T09:40:04;8.97;;;5.90;;
81367;SDS011;70823;50.056;14.398;2024-02-26T09:42:31;9.18;;;5.65;;
81367;SDS011;70823;50.056;14.398;2024-02-26T09:45:00;8.43;;;5.85;;
81367;SDS011;70823;50.056;14.398;2024-02-26T09:47:29;8.50;;;5.97;;
81367;SDS011;70823;50.056;14.398;2024-02-26T09:49:56;7.72;;;5.60;;
81367;SDS011;70823;50.056;14.398;2024-02-26T09:52:22;7.57;;;5.30;;
81367;SDS011;70823;50.056;14.398;2024-02-26T09:54:48;8.90;;;5.35;;
81367;SDS011;70823;50.056;14.398;2024-02-26T09:57:14;9.63;;;5.90;;
81367;SDS011;70823;50.056;14.398;2024-02-26T09:59:42;7.82;;;5.95;;
81367;SDS011;70823;50.056;14.398;2024-02-26T10:02:08;9.77;;;6.30;;
81367;SDS011;70823;50.056;14.398;2024-02-26T10:04:36;7.57;;;5.22;;
81367;SDS011;70823;50.056;14.398;2024-02-26T10:07:01;9.13;;;5.53;;
81367;SDS011;70823;50.056;14.398;2024-02-26T10:09:29;7.95;;;5.40;;
81367;SDS011;70823;50.056;14.398;2024-02-26T10:11:54;7.20;;;5.25;;
81367;SDS011;70823;50.056;14.398;2024-02-26T10:14:20;8.00;;;5.57;;
81367;SDS011;70823;50.056;14.398;2024-02-26T10:16:46;9.05;;;5.68;;
81367;SDS011;70823;50.056;14.398;2024-02-26T10:19:15;7.35;;;5.32;;
81367;SDS011;70823;50.056;14.398;2024-02-26T10:21:49;8.50;;;5.57;;
81367;SDS011;70823;50.056;14.398;2024-02-26T10:24:21;7.70;;;5.47;;
81367;SDS011;70823;50.056;14.398;2024-02-26T10:26:46;7.87;;;5.97;;
81367;SDS011;70823;50.056;14.398;2024-02-26T10:29:12;7.50;;;5.68;;
81367;SDS011;70823;50.056;14.398;2024-02-26T10:31:37;7.40;;;5.57;;
81367;SDS011;70823;50.056;14.398;2024-02-26T10:34:02;7.73;;;5.60;;
81367;SDS011;70823;50.056;14.398;2024-02-26T10:36:29;6.72;;;5.07;;
81367;SDS011;70823;50.056;14.398;2024-02-26T10:39:01;7.47;;;5.18;;
81367;SDS011;70823;50.056;14.398;2024-02-26T10:41:27;7.88;;;5.50;;
81367;SDS011;70823;50.056;14.398;2024-02-26T10:43:52;8.00;;;5.63;;
81367;SDS011;70823;50.056;14.398;2024-02-26T10:46:17;7.20;;;4.87;;
81367;SDS011;70823;50.056;14.398;2024-02-26T10:48:49;8.50;;;4.95;;
81367;SDS011;70823;50.056;14.398;2024-02-26T10:51:15;7.47;;;4.97;;
81367;SDS011;70823;50.056;14.398;2024-02-26T10:53:41;6.97;;;5.15;;
81367;SDS011;70823;50.056;14.398;2024-02-26T10:56:08;6.72;;;4.93;;
81367;SDS011;70823;50.056;14.398;2024-02-26T10:58:35;6.82;;;5.07;;
81367;SDS011;70823;50.056;14.398;2024-02-26T11:01:00;7.80;;;5.22;;
81367;SDS011;70823;50.056;14.398;2024-02-26T11:03:26;7.18;;;4.88;;
81367;SDS011;70823;50.056;14.398;2024-02-26T11:05:53;7.38;;;5.72;;
81367;SDS011;70823;50.056;14.398;2024-02-26T11:08:18;6.35;;;4.55;;
81367;SDS011;70823;50.056;14.398;2024-02-26T11:10:47;6.93;;;4.97;;
81367;SDS011;70823;50.056;14.398;2024-02-26T11:13:14;7.43;;;4.97;;
81367;SDS011;70823;50.056;14.398;2024-02-26T11:15:40;6.63;;;5.47;;
81367;SDS011;70823;50.056;14.398;2024-02-26T11:18:05;7.53;;;5.88;;
81367;SDS011;70823;50.056;14.398;2024-02-26T11:20:32;6.50;;;5.00;;
81367;SDS011;70823;50.056;14.398;2024-02-26T11:22:58;8.07;;;5.25;;
81367;SDS011;70823;50.056;14.398;2024-02-26T11:25:24;7.20;;;5.23;;
81367;SDS011;70823;50.056;14.398;2024-02-26T11:27:51;6.45;;;4.80;;
81367;SDS011;70823;50.056;14.398;2024-02-26T11:30:29;7.60;;;5.45;;
81367;SDS011;70823;50.056;14.398;2024-02-26T11:32:55;6.47;;;4.55;;
81367;SDS011;70823;50.056;14.398;2024-02-26T11:35:21;7.00;;;5.25;;
81367;SDS011;70823;50.056;14.398;2024-02-26T11:37:56;7.63;;;5.18;;
81367;SDS011;70823;50.056;14.398;2024-02-26T11:40:22;7.15;;;4.95;;
81367;SDS011;70823;50.056;14.398;2024-02-26T11:42:49;7.50;;;5.13;;
81367;SDS011;70823;50.056;14.398;2024-02-26T11:48:04;8.50;;;5.38;;
81367;SDS011;70823;50.056;14.398;2024-02-26T11:50:36;6.85;;;4.93;;
81367;SDS011;70823;50.056;14.398;2024-02-26T11:53:24;6.03;;;4.72;;
81367;SDS011;70823;50.056;14.398;2024-02-26T11:58:40;8.00;;;5.50;;
81367;SDS011;70823;50.056;14.398;2024-02-26T12:01:06;7.03;;;5.25;;
81367;SDS011;70823;50.056;14.398;2024-02-26T12:03:31;7.47;;;5.65;;
81367;SDS011;70823;50.056;14.398;2024-02-26T12:05:56;6.67;;;5.53;;
81367;SDS011;70823;50.056;14.398;2024-02-26T12:08:21;7.83;;;6.13;;
81367;SDS011;70823;50.056;14.398;2024-02-26T12:10:48;6.68;;;4.90;;
81367;SDS011;70823;50.056;14.398;2024-02-26T12:13:14;6.90;;;5.07;;
81367;SDS011;70823;50.056;14.398;2024-02-26T12:15:44;6.10;;;4.70;;
81367;SDS011;70823;50.056;14.398;2024-02-26T12:18:15;6.93;;;4.95;;
81367;SDS011;70823;50.056;14.398;2024-02-26T12:20:42;7.25;;;5.32;;
81367;SDS011;70823;50.056;14.398;2024-02-26T12:23:09;7.32;;;5.75;;
81367;SDS011;70823;50.056;14.398;2024-02-26T12:25:39;8.05;;;5.25;;
81367;SDS011;70823;50.056;14.398;2024-02-26T12:28:05;6.78;;;5.00;;
81367;SDS011;70823;50.056;14.398;2024-02-26T12:30:30;7.22;;;4.90;;
81367;SDS011;70823;50.056;14.398;2024-02-26T12:32:56;7.25;;;5.05;;
81367;SDS011;70823;50.056;14.398;2024-02-26T12:35:22;6.22;;;4.82;;
81367;SDS011;70823;50.056;14.398;2024-02-26T12:37:49;6.10;;;4.38;;
81367;SDS011;70823;50.056;14.398;2024-02-26T12:40:16;7.53;;;5.72;;
81367;SDS011;70823;50.056;14.398;2024-02-26T12:42:42;6.88;;;4.57;;
81367;SDS011;70823;50.056;14.398;2024-02-26T12:45:08;6.60;;;4.55;;
81367;SDS011;70823;50.056;14.398;2024-02-26T12:47:35;6.47;;;4.78;;
81367;SDS011;70823;50.056;14.398;2024-02-26T12:50:02;7.18;;;4.88;;
81367;SDS011;70823;50.056;14.398;2024-02-26T12:52:29;6.22;;;5.00;;
81367;SDS011;70823;50.056;14.398;2024-02-26T12:54:55;6.53;;;5.13;;
81367;SDS011;70823;50.056;14.398;2024-02-26T12:57:20;7.13;;;4.60;;
81367;SDS011;70823;50.056;14.398;2024-02-26T12:59:46;6.00;;;4.07;;
81367;SDS011;70823;50.056;14.398;2024-02-26T13:02:11;6.00;;;4.63;;
81367;SDS011;70823;50.056;14.398;2024-02-26T13:04:37;6.53;;;4.73;;
81367;SDS011;70823;50.056;14.398;2024-02-26T13:07:03;6.20;;;4.35;;
81367;SDS011;70823;50.056;14.398;2024-02-26T13:09:32;7.25;;;4.63;;
81367;SDS011;70823;50.056;14.398;2024-02-26T13:11:58;7.18;;;5.00;;
81367;SDS011;70823;50.056;14.398;2024-02-26T13:14:24;6.88;;;4.82;;
81367;SDS011;70823;50.056;14.398;2024-02-26T13:16:55;6.37;;;4.40;;
81367;SDS011;70823;50.056;14.398;2024-02-26T13:19:22;7.30;;;4.90;;
81367;SDS011;70823;50.056;14.398;2024-02-26T13:21:47;7.05;;;4.80;;
81367;SDS011;70823;50.056;14.398;2024-02-26T13:24:13;7.03;;;4.77;;
81367;SDS011;70823;50.056;14.398;2024-02-26T13:26:38;5.97;;;4.43;;
81367;SDS011;70823;50.056;14.398;2024-02-26T13:29:04;6.75;;;4.60;;
81367;SDS011;70823;50.056;14.398;2024-02-26T13:31:30;5.72;;;4.47;;
81367;SDS011;70823;50.056;14.398;2024-02-26T13:33:55;6.53;;;4.50;;
81367;SDS011;70823;50.056;14.398;2024-02-26T13:36:24;5.38;;;3.88;;
81367;SDS011;70823;50.056;14.398;2024-02-26T13:38:54;6.15;;;4.15;;
81367;SDS011;70823;50.056;14.398;2024-02-26T13:41:20;6.18;;;4.63;;
81367;SDS011;70823;50.056;14.398;2024-02-26T13:43:46;6.82;;;4.40;;
81367;SDS011;70823;50.056;14.398;2024-02-26T13:46:11;6.90;;;4.43;;
81367;SDS011;70823;50.056;14.398;2024-02-26T13:48:38;5.38;;;4.25;;
81367;SDS011;70823;50.056;14.398;2024-02-26T13:51:04;7.03;;;4.77;;
81367;SDS011;70823;50.056;14.398;2024-02-26T13:53:29;6.55;;;4.43;;
81367;SDS011;70823;50.056;14.398;2024-02-26T13:55:55;5.97;;;4.33;;
81367;SDS011;70823;50.056;14.398;2024-02-26T13:58:20;6.18;;;4.05;;
81367;SDS011;70823;50.056;14.398;2024-02-26T14:00:48;6.55;;;5.18;;
81367;SDS011;70823;50.056;14.398;2024-02-26T14:03:14;5.57;;;4.35;;
81367;SDS011;70823;50.056;14.398;2024-02-26T14:05:39;5.55;;;4.13;;
81367;SDS011;70823;50.056;14.398;2024-02-26T14:08:05;5.82;;;3.92;;
81367;SDS011;70823;50.056;14.398;2024-02-26T14:10:31;6.93;;;4.60;;
81367;SDS011;70823;50.056;14.398;2024-02-26T14:12:57;5.72;;;4.10;;
81367;SDS011;70823;50.056;14.398;2024-02-26T14:15:23;6.22;;;4.63;;
81367;SDS011;70823;50.056;14.398;2024-02-26T14:17:49;5.28;;;4.10;;
81367;SDS011;70823;50.056;14.398;2024-02-26T14:20:24;6.35;;;4.63;;
81367;SDS011;70823;50.056;14.398;2024-02-26T14:22:50;5.63;;;4.60;;
81367;SDS011;70823;50.056;14.398;2024-02-26T14:25:18;5.13;;;4.03;;
81367;SDS011;70823;50.056;14.398;2024-02-26T14:27:44;6.25;;;4.85;;